TimeCDT,TemperatureF,Dew PointF,Humidity,Sea Level PressureIn,VisibilityMPH,Wind Direction,Wind SpeedMPH,Gust SpeedMPH,PrecipitationIn,Events,Conditions,WindDirDegrees,DateUTC
12:53 AM,79.0,69.1,72,29.99,10.0,ESE,4.6,-,N/A,,Clear,120,2012-09-02 05:53:00
1:53 AM,77.0,70.0,79,29.99,10.0,SSE,4.6,-,N/A,,Clear,160,2012-09-02 06:53:00
3:53 AM,75.9,71.1,85,29.98,10.0,Calm,Calm,-,N/A,,Clear,0,2012-09-02 08:53:00
4:53 AM,75.0,71.1,87,29.98,10.0,Calm,Calm,-,N/A,,Clear,0,2012-09-02 09:53:00
5:53 AM,75.0,72.0,90,29.99,10.0,Calm,Calm,-,N/A,,Mostly Cloudy,0,2012-09-02 10:53:00
6:50 AM,77.0,73.4,89,30.03,10.0,South,5.8,-,N/A,,Overcast,170,2012-09-02 11:50:00
6:53 AM,77.0,73.0,88,30.00,10.0,South,5.8,-,N/A,,Overcast,180,2012-09-02 11:53:00
7:53 AM,77.0,73.0,88,30.02,9.0,South,4.6,-,N/A,,Overcast,190,2012-09-02 12:53:00
8:28 AM,78.8,73.4,83,30.06,10.0,South,5.8,-,N/A,,Overcast,170,2012-09-02 13:28:00
8:50 AM,78.8,73.4,83,30.06,10.0,South,6.9,-,N/A,,Overcast,170,2012-09-02 13:50:00
8:53 AM,79.0,73.9,84,30.03,10.0,South,6.9,-,N/A,,Overcast,170,2012-09-02 13:53:00
9:17 AM,78.8,73.4,83,30.06,9.0,South,9.2,-,N/A,,Overcast,180,2012-09-02 14:17:00
9:53 AM,81.0,72.0,74,30.03,10.0,South,11.5,17.3,N/A,,Overcast,180,2012-09-02 14:53:00
10:53 AM,82.9,72.0,69,30.04,10.0,SSW,8.1,-,N/A,,Mostly Cloudy,210,2012-09-02 15:53:00
11:17 AM,87.8,71.6,58,30.07,10.0,SSE,6.9,-,N/A,,Mostly Cloudy,160,2012-09-02 16:17:00
11:27 AM,87.8,71.6,58,30.07,10.0,South,5.8,-,N/A,,Scattered Clouds,170,2012-09-02 16:27:00
11:53 AM,88.0,71.1,57,30.03,10.0,Variable,6.9,17.3,N/A,,Mostly Cloudy,0,2012-09-02 16:53:00
12:53 PM,89.1,69.1,52,30.00,10.0,South,11.5,-,N/A,,Mostly Cloudy,190,2012-09-02 17:53:00
1:53 PM,93.9,68.0,43,29.97,10.0,SSE,11.5,17.3,N/A,,Scattered Clouds,150,2012-09-02 18:53:00
2:53 PM,93.9,64.9,38,29.94,10.0,South,9.2,16.1,N/A,,Clear,190,2012-09-02 19:53:00
3:53 PM,97.0,62.1,31,29.90,10.0,SSE,8.1,16.1,N/A,,Clear,160,2012-09-02 20:53:00
4:53 PM,98.1,59.0,27,29.88,10.0,SSE,15.0,19.6,N/A,,Clear,160,2012-09-02 21:53:00
5:53 PM,98.1,57.0,25,29.87,10.0,SSE,11.5,-,N/A,,Clear,160,2012-09-02 22:53:00
6:53 PM,96.1,57.9,28,29.86,10.0,SSE,10.4,-,N/A,,Clear,160,2012-09-02 23:53:00
7:53 PM,91.9,57.9,32,29.87,10.0,SSE,5.8,-,N/A,,Clear,150,2012-09-03 00:53:00
8:53 PM,89.1,66.0,46,29.89,10.0,SE,13.8,18.4,N/A,,Clear,140,2012-09-03 01:53:00
9:53 PM,86.0,69.1,57,29.93,10.0,SE,15.0,23.0,N/A,,Clear,140,2012-09-03 02:53:00
10:53 PM,82.9,70.0,65,29.93,10.0,SSE,11.5,-,N/A,,Clear,150,2012-09-03 03:53:00
11:53 PM,82.0,70.0,67,29.93,10.0,SE,8.1,-,N/A,,Clear,140,2012-09-03 04:53:00